RYR41G EGHH-LFBE
Flight info
| Callsign | RYR41G |
|---|---|
| Flight time | 1h 11m |
| Altitude | 34000 |
| Route | SAM M195 MARUK N621 LELNA DCT DOMOK UT260 UPALO UY110 REN UP87 GODAN UN862 TERPO UM616 TUPAR DCT CNA R17 VELIN |
| Aircraft | A320/M-SDE3FGHIRWY/LB1 |
Departure
| Time | 2026-05-04 12:42 |
|---|---|
| Airport | Bournemouth Airport (EGHH) |
Arrival
| Time | 2026-05-04 13:54 |
|---|---|
| Airport | Bergerac Dordogne-Périgord airport (LFBE) |
| Time | Latitude | Longitude | Altitude | Speed | Heading |
|---|---|---|---|---|---|
| 2026-05-04 12:19 | 50.77806 | -1.83370 | 43 ft | 0 kts | 86° |
| 2026-05-04 12:35 | 50.77804 | -1.83403 | 42 ft | 4 kts | 84° |
| 2026-05-04 12:36 | 50.77800 | -1.83445 | 39 ft | 4 kts | 66° |
| 2026-05-04 12:36 | 50.77787 | -1.83469 | 39 ft | 2 kts | 357° |
| 2026-05-04 12:36 | 50.77785 | -1.83469 | 39 ft | 0 kts | 356° |
| 2026-05-04 12:38 | 50.77786 | -1.83469 | 43 ft | 1 kts | 356° |
| 2026-05-04 12:38 | 50.77808 | -1.83470 | 43 ft | 7 kts | 358° |
| 2026-05-04 12:39 | 50.77881 | -1.83479 | 41 ft | 12 kts | 352° |
| 2026-05-04 12:39 | 50.77960 | -1.83483 | 42 ft | 10 kts | 14° |
| 2026-05-04 12:39 | 50.78008 | -1.83405 | 43 ft | 11 kts | 64° |
| 2026-05-04 12:39 | 50.78036 | -1.83313 | 41 ft | 13 kts | 64° |
| 2026-05-04 12:40 | 50.78082 | -1.83199 | 42 ft | 12 kts | 56° |
| 2026-05-04 12:40 | 50.78123 | -1.83069 | 43 ft | 13 kts | 79° |
| 2026-05-04 12:40 | 50.78117 | -1.82919 | 39 ft | 14 kts | 85° |
| 2026-05-04 12:40 | 50.78149 | -1.82796 | 36 ft | 11 kts | 53° |
| 2026-05-04 12:41 | 50.78215 | -1.82723 | 42 ft | 11 kts | 8° |
| 2026-05-04 12:41 | 50.78250 | -1.82793 | 44 ft | 9 kts | 262° |
| 2026-05-04 12:41 | 50.78248 | -1.82802 | 43 ft | 0 kts | 255° |
| 2026-05-04 12:42 | 50.78230 | -1.82908 | 42 ft | 42 kts | 255° |
| 2026-05-04 12:42 | 50.78075 | -1.83845 | 44 ft | 129 kts | 255° |
| 2026-05-04 12:42 | 50.77804 | -1.85484 | 356 ft | 166 kts | 256° |
| 2026-05-04 12:42 | 50.77508 | -1.87311 | 1149 ft | 178 kts | 254° |
| 2026-05-04 12:43 | 50.77350 | -1.89293 | 1935 ft | 186 kts | 269° |
| 2026-05-04 12:43 | 50.77398 | -1.91393 | 2438 ft | 197 kts | 271° |
| 2026-05-04 12:43 | 50.77438 | -1.93624 | 2886 ft | 212 kts | 270° |
| 2026-05-04 12:43 | 50.77106 | -1.95996 | 3213 ft | 236 kts | 236° |
| 2026-05-04 12:44 | 50.75797 | -1.97691 | 3669 ft | 257 kts | 198° |
| 2026-05-04 12:44 | 50.74011 | -1.97774 | 4440 ft | 264 kts | 161° |
| 2026-05-04 12:44 | 50.72440 | -1.96280 | 5352 ft | 267 kts | 137° |
| 2026-05-04 12:44 | 50.71132 | -1.94184 | 6322 ft | 269 kts | 132° |
| 2026-05-04 12:45 | 50.70299 | -1.92726 | 6931 ft | 270 kts | 133° |
| 2026-05-04 12:45 | 50.69031 | -1.90514 | 7829 ft | 273 kts | 135° |
| 2026-05-04 12:45 | 50.67494 | -1.88752 | 8655 ft | 276 kts | 157° |
| 2026-05-04 12:45 | 50.65623 | -1.88131 | 9525 ft | 278 kts | 181° |
| 2026-05-04 12:46 | 50.63674 | -1.88600 | 10092 ft | 293 kts | 191° |
| 2026-05-04 12:46 | 50.61599 | -1.89295 | 10316 ft | 317 kts | 192° |
| 2026-05-04 12:46 | 50.59367 | -1.90077 | 10478 ft | 340 kts | 192° |
| 2026-05-04 12:46 | 50.57015 | -1.90904 | 10612 ft | 362 kts | 192° |
| 2026-05-04 12:47 | 50.54493 | -1.91779 | 10786 ft | 380 kts | 192° |
| 2026-05-04 12:47 | 50.51852 | -1.92688 | 11310 ft | 387 kts | 192° |
| 2026-05-04 12:47 | 50.49215 | -1.93589 | 11924 ft | 390 kts | 192° |
| 2026-05-04 12:47 | 50.46546 | -1.94492 | 12579 ft | 394 kts | 192° |
| 2026-05-04 12:48 | 50.43890 | -1.95383 | 13244 ft | 397 kts | 192° |
| 2026-05-04 12:48 | 50.41179 | -1.96289 | 13908 ft | 400 kts | 192° |
| 2026-05-04 12:48 | 50.38405 | -1.97222 | 14487 ft | 404 kts | 192° |
| 2026-05-04 12:48 | 50.35685 | -1.98143 | 15023 ft | 407 kts | 192° |
| 2026-05-04 12:49 | 50.32907 | -1.99086 | 15559 ft | 410 kts | 192° |
| 2026-05-04 12:49 | 50.30103 | -2.00034 | 16071 ft | 413 kts | 191° |
| 2026-05-04 12:49 | 50.27278 | -2.00983 | 16579 ft | 416 kts | 191° |
| 2026-05-04 12:49 | 50.24428 | -2.01933 | 17076 ft | 420 kts | 191° |
| 2026-05-04 12:50 | 50.21566 | -2.02889 | 17552 ft | 423 kts | 191° |
| 2026-05-04 12:50 | 50.18678 | -2.03858 | 18034 ft | 426 kts | 191° |
| 2026-05-04 12:50 | 50.15767 | -2.04835 | 18481 ft | 429 kts | 191° |
| 2026-05-04 12:50 | 50.12836 | -2.05815 | 18916 ft | 431 kts | 191° |
| 2026-05-04 12:51 | 50.09900 | -2.06790 | 19359 ft | 432 kts | 191° |
| 2026-05-04 12:51 | 50.06958 | -2.07765 | 19803 ft | 434 kts | 191° |
| 2026-05-04 12:51 | 50.04003 | -2.08743 | 20238 ft | 435 kts | 192° |
| 2026-05-04 12:51 | 50.01040 | -2.09725 | 20652 ft | 436 kts | 192° |
| 2026-05-04 12:52 | 49.98056 | -2.10542 | 21035 ft | 437 kts | 185° |
| 2026-05-04 12:52 | 49.95011 | -2.10659 | 21401 ft | 438 kts | 180° |
| 2026-05-04 12:52 | 49.91968 | -2.10640 | 21760 ft | 439 kts | 180° |
| 2026-05-04 12:52 | 49.88912 | -2.10616 | 22101 ft | 439 kts | 180° |
| 2026-05-04 12:53 | 49.85857 | -2.10588 | 22436 ft | 440 kts | 180° |
| 2026-05-04 12:53 | 49.82781 | -2.10563 | 22769 ft | 441 kts | 180° |
| 2026-05-04 12:53 | 49.79708 | -2.10540 | 23090 ft | 442 kts | 180° |
| 2026-05-04 12:53 | 49.76635 | -2.10521 | 23404 ft | 443 kts | 180° |
| 2026-05-04 12:54 | 49.73551 | -2.10433 | 23674 ft | 444 kts | 176° |
| 2026-05-04 12:54 | 49.70495 | -2.09645 | 23898 ft | 447 kts | 167° |
| 2026-05-04 12:54 | 49.67501 | -2.08328 | 24109 ft | 448 kts | 166° |
| 2026-05-04 12:54 | 49.64538 | -2.07015 | 24300 ft | 448 kts | 166° |
| 2026-05-04 12:55 | 49.61540 | -2.05693 | 24493 ft | 449 kts | 166° |
| 2026-05-04 12:55 | 49.58537 | -2.04375 | 24667 ft | 449 kts | 166° |
| 2026-05-04 12:55 | 49.55533 | -2.03063 | 24824 ft | 450 kts | 166° |
| 2026-05-04 12:55 | 49.52520 | -2.01749 | 24981 ft | 450 kts | 166° |
| 2026-05-04 12:56 | 49.49502 | -2.00435 | 25120 ft | 450 kts | 166° |
| 2026-05-04 12:56 | 49.46493 | -1.99123 | 25246 ft | 450 kts | 166° |
| 2026-05-04 12:56 | 49.43471 | -1.97804 | 25364 ft | 450 kts | 166° |
| 2026-05-04 12:56 | 49.40463 | -1.96490 | 25539 ft | 450 kts | 166° |
| 2026-05-04 12:57 | 49.37457 | -1.95178 | 25733 ft | 448 kts | 166° |
| 2026-05-04 12:57 | 49.34461 | -1.93876 | 25929 ft | 447 kts | 166° |
| 2026-05-04 12:57 | 49.31466 | -1.92579 | 26120 ft | 446 kts | 166° |
| 2026-05-04 12:57 | 49.28486 | -1.91290 | 26337 ft | 445 kts | 166° |
| 2026-05-04 12:58 | 49.25504 | -1.90001 | 26543 ft | 444 kts | 166° |
| 2026-05-04 12:58 | 49.22533 | -1.88717 | 26733 ft | 443 kts | 166° |
| 2026-05-04 12:58 | 49.19563 | -1.87437 | 26926 ft | 442 kts | 166° |
| 2026-05-04 12:58 | 49.16606 | -1.86163 | 27127 ft | 442 kts | 166° |
| 2026-05-04 12:59 | 49.13656 | -1.84891 | 27329 ft | 441 kts | 166° |
| 2026-05-04 12:59 | 49.10728 | -1.83627 | 27812 ft | 434 kts | 166° |
| 2026-05-04 12:59 | 49.07838 | -1.82377 | 28348 ft | 428 kts | 166° |
| 2026-05-04 12:59 | 49.04987 | -1.81148 | 28912 ft | 423 kts | 166° |
| 2026-05-04 13:00 | 49.02164 | -1.79941 | 29467 ft | 419 kts | 166° |
| 2026-05-04 13:00 | 48.99377 | -1.78756 | 30037 ft | 415 kts | 166° |
| 2026-05-04 13:00 | 48.96601 | -1.77579 | 30532 ft | 412 kts | 166° |
| 2026-05-04 13:00 | 48.93852 | -1.76412 | 31028 ft | 409 kts | 166° |
| 2026-05-04 13:01 | 48.91126 | -1.75461 | 31527 ft | 405 kts | 172° |
| 2026-05-04 13:01 | 48.88326 | -1.75144 | 32046 ft | 402 kts | 180° |
| 2026-05-04 13:01 | 48.85538 | -1.75115 | 32572 ft | 400 kts | 180° |
| 2026-05-04 13:01 | 48.82723 | -1.75086 | 33115 ft | 398 kts | 180° |
| 2026-05-04 13:02 | 48.79966 | -1.75055 | 33659 ft | 395 kts | 180° |
| 2026-05-04 13:02 | 48.77239 | -1.75020 | 33951 ft | 399 kts | 180° |
| 2026-05-04 13:02 | 48.74432 | -1.74984 | 34000 ft | 407 kts | 180° |
| 2026-05-04 13:03 | 48.68636 | -1.74909 | 34000 ft | 425 kts | 180° |
| 2026-05-04 13:03 | 48.62624 | -1.74840 | 33993 ft | 435 kts | 180° |
| 2026-05-04 13:04 | 48.56609 | -1.74773 | 33996 ft | 431 kts | 180° |
| 2026-05-04 13:04 | 48.50609 | -1.74701 | 33997 ft | 431 kts | 180° |
| 2026-05-04 13:05 | 48.44613 | -1.74625 | 33991 ft | 431 kts | 180° |
| 2026-05-04 13:05 | 48.38615 | -1.74547 | 33992 ft | 431 kts | 180° |
| 2026-05-04 13:06 | 48.32612 | -1.74474 | 33984 ft | 431 kts | 180° |
| 2026-05-04 13:06 | 48.26613 | -1.74403 | 33986 ft | 431 kts | 180° |
| 2026-05-04 13:07 | 48.20610 | -1.74330 | 33988 ft | 431 kts | 180° |
| 2026-05-04 13:07 | 48.14677 | -1.74264 | 33980 ft | 418 kts | 180° |
| 2026-05-04 13:08 | 48.08880 | -1.74250 | 33978 ft | 420 kts | 184° |
| 2026-05-04 13:08 | 48.03113 | -1.76121 | 33979 ft | 429 kts | 199° |
| 2026-05-04 13:09 | 47.97473 | -1.79043 | 33970 ft | 430 kts | 198° |
| 2026-05-04 13:09 | 47.91809 | -1.81946 | 33977 ft | 430 kts | 198° |
| 2026-05-04 13:10 | 47.86184 | -1.84819 | 33974 ft | 430 kts | 198° |
| 2026-05-04 13:10 | 47.80523 | -1.87705 | 33975 ft | 430 kts | 198° |
| 2026-05-04 13:11 | 47.74855 | -1.90591 | 33972 ft | 431 kts | 198° |
| 2026-05-04 13:11 | 47.69180 | -1.93474 | 33976 ft | 431 kts | 198° |
| 2026-05-04 13:12 | 47.63368 | -1.95580 | 33977 ft | 431 kts | 184° |
| 2026-05-04 13:12 | 47.57382 | -1.95274 | 33972 ft | 431 kts | 176° |
| 2026-05-04 13:13 | 47.51394 | -1.94628 | 33977 ft | 432 kts | 176° |
| 2026-05-04 13:13 | 47.45398 | -1.93998 | 33977 ft | 432 kts | 176° |
| 2026-05-04 13:14 | 47.39416 | -1.93143 | 33979 ft | 432 kts | 168° |
| 2026-05-04 13:14 | 47.33858 | -1.89764 | 33980 ft | 436 kts | 148° |
| 2026-05-04 13:15 | 47.29440 | -1.83709 | 33979 ft | 441 kts | 134° |
| 2026-05-04 13:15 | 47.25409 | -1.76907 | 33978 ft | 441 kts | 134° |
| 2026-05-04 13:16 | 47.21366 | -1.70123 | 33984 ft | 440 kts | 134° |
| 2026-05-04 13:16 | 47.17299 | -1.63317 | 33989 ft | 440 kts | 134° |
| 2026-05-04 13:17 | 47.12915 | -1.57125 | 33990 ft | 437 kts | 141° |
| 2026-05-04 13:17 | 47.08417 | -1.51221 | 33989 ft | 436 kts | 141° |
| 2026-05-04 13:18 | 47.03899 | -1.45284 | 33991 ft | 436 kts | 141° |
| 2026-05-04 13:18 | 46.99386 | -1.39371 | 33988 ft | 435 kts | 141° |
| 2026-05-04 13:19 | 46.94870 | -1.33467 | 33988 ft | 435 kts | 141° |
| 2026-05-04 13:19 | 46.90354 | -1.27569 | 33985 ft | 435 kts | 141° |
| 2026-05-04 13:20 | 46.85843 | -1.21691 | 33981 ft | 435 kts | 141° |
| 2026-05-04 13:20 | 46.81316 | -1.15796 | 33979 ft | 435 kts | 141° |
| 2026-05-04 13:21 | 46.76789 | -1.09917 | 33971 ft | 436 kts | 141° |
| 2026-05-04 13:21 | 46.72251 | -1.04044 | 33966 ft | 436 kts | 141° |
| 2026-05-04 13:22 | 46.67710 | -0.98173 | 33961 ft | 437 kts | 141° |
| 2026-05-04 13:22 | 46.63144 | -0.92303 | 33961 ft | 438 kts | 142° |
| 2026-05-04 13:23 | 46.58577 | -0.86444 | 33956 ft | 438 kts | 142° |
| 2026-05-04 13:23 | 46.54015 | -0.80560 | 33950 ft | 439 kts | 142° |
| 2026-05-04 13:24 | 46.49447 | -0.74668 | 33944 ft | 439 kts | 142° |
| 2026-05-04 13:24 | 46.44875 | -0.68886 | 33944 ft | 437 kts | 146° |
| 2026-05-04 13:25 | 46.39601 | -0.64742 | 33942 ft | 429 kts | 164° |
| 2026-05-04 13:25 | 46.36759 | -0.63431 | 33955 ft | 429 kts | 165° |
| 2026-05-04 13:25 | 46.31064 | -0.60821 | 33948 ft | 429 kts | 165° |
| 2026-05-04 13:26 | 46.25376 | -0.58199 | 33944 ft | 429 kts | 165° |
| 2026-05-04 13:26 | 46.19695 | -0.55576 | 33958 ft | 428 kts | 165° |
| 2026-05-04 13:27 | 46.14011 | -0.52958 | 33951 ft | 428 kts | 165° |
| 2026-05-04 13:27 | 46.08334 | -0.50367 | 33955 ft | 427 kts | 165° |
| 2026-05-04 13:28 | 46.02667 | -0.47789 | 33952 ft | 427 kts | 165° |
| 2026-05-04 13:28 | 45.97003 | -0.45210 | 33958 ft | 427 kts | 165° |
| 2026-05-04 13:29 | 45.91383 | -0.42644 | 33954 ft | 426 kts | 166° |
| 2026-05-04 13:29 | 45.85739 | -0.40089 | 33957 ft | 426 kts | 166° |
| 2026-05-04 13:30 | 45.80127 | -0.37553 | 33956 ft | 425 kts | 166° |
| 2026-05-04 13:30 | 45.74499 | -0.35010 | 33905 ft | 410 kts | 166° |
| 2026-05-04 13:31 | 45.71797 | -0.33787 | 33198 ft | 406 kts | 166° |
| 2026-05-04 13:31 | 45.69121 | -0.32582 | 32251 ft | 401 kts | 165° |
| 2026-05-04 13:31 | 45.67363 | -0.31791 | 31655 ft | 397 kts | 165° |
| 2026-05-04 13:31 | 45.63971 | -0.29786 | 30455 ft | 392 kts | 156° |
| 2026-05-04 13:32 | 45.62348 | -0.28649 | 29863 ft | 389 kts | 156° |
| 2026-05-04 13:32 | 45.59936 | -0.26973 | 28857 ft | 383 kts | 157° |
| 2026-05-04 13:32 | 45.57551 | -0.25325 | 27894 ft | 378 kts | 157° |
| 2026-05-04 13:32 | 45.55198 | -0.23706 | 26960 ft | 373 kts | 157° |
| 2026-05-04 13:33 | 45.52866 | -0.22102 | 26059 ft | 370 kts | 157° |
| 2026-05-04 13:33 | 45.50559 | -0.20515 | 25184 ft | 368 kts | 157° |
| 2026-05-04 13:33 | 45.48261 | -0.18935 | 24336 ft | 365 kts | 156° |
| 2026-05-04 13:33 | 45.45978 | -0.17368 | 23502 ft | 363 kts | 156° |
| 2026-05-04 13:34 | 45.43709 | -0.15811 | 22540 ft | 360 kts | 156° |
| 2026-05-04 13:34 | 45.41464 | -0.14269 | 21604 ft | 357 kts | 156° |
| 2026-05-04 13:34 | 45.39264 | -0.12756 | 20703 ft | 353 kts | 156° |
| 2026-05-04 13:34 | 45.37066 | -0.11244 | 19823 ft | 349 kts | 156° |
| 2026-05-04 13:35 | 45.34886 | -0.09746 | 18967 ft | 345 kts | 157° |
| 2026-05-04 13:35 | 45.30608 | -0.06818 | 17175 ft | 338 kts | 157° |
| 2026-05-04 13:35 | 45.28503 | -0.05374 | 16261 ft | 335 kts | 157° |
| 2026-05-04 13:36 | 45.26411 | -0.03939 | 15372 ft | 332 kts | 157° |
| 2026-05-04 13:36 | 45.24340 | -0.02522 | 14505 ft | 329 kts | 157° |
| 2026-05-04 13:36 | 45.22287 | -0.01120 | 13655 ft | 327 kts | 157° |
| 2026-05-04 13:36 | 45.20244 | 0.00269 | 12725 ft | 324 kts | 157° |
| 2026-05-04 13:37 | 45.18217 | 0.01646 | 11808 ft | 322 kts | 157° |
| 2026-05-04 13:37 | 45.16201 | 0.03012 | 10944 ft | 320 kts | 157° |
| 2026-05-04 13:37 | 45.14196 | 0.04374 | 10082 ft | 318 kts | 157° |
| 2026-05-04 13:37 | 45.12204 | 0.05723 | 9174 ft | 316 kts | 157° |
| 2026-05-04 13:38 | 45.10225 | 0.07062 | 8267 ft | 314 kts | 157° |
| 2026-05-04 13:38 | 45.08286 | 0.08376 | 7395 ft | 312 kts | 157° |
| 2026-05-04 13:38 | 45.06332 | 0.09701 | 6527 ft | 310 kts | 157° |
| 2026-05-04 13:38 | 45.04421 | 0.10998 | 6072 ft | 295 kts | 157° |
| 2026-05-04 13:39 | 45.02634 | 0.12249 | 5926 ft | 282 kts | 153° |
| 2026-05-04 13:39 | 45.01014 | 0.13807 | 5910 ft | 284 kts | 143° |
| 2026-05-04 13:39 | 44.99597 | 0.15764 | 5916 ft | 286 kts | 133° |
| 2026-05-04 13:39 | 44.98796 | 0.17241 | 5918 ft | 284 kts | 127° |
| 2026-05-04 13:40 | 44.98236 | 0.18476 | 5931 ft | 275 kts | 124° |
| 2026-05-04 13:40 | 44.97428 | 0.20870 | 5908 ft | 264 kts | 112° |
| 2026-05-04 13:40 | 44.96971 | 0.23361 | 5914 ft | 261 kts | 102° |
| 2026-05-04 13:41 | 44.96679 | 0.25854 | 5917 ft | 260 kts | 102° |
| 2026-05-04 13:41 | 44.96368 | 0.28374 | 5919 ft | 260 kts | 103° |
| 2026-05-04 13:41 | 44.96051 | 0.30886 | 5919 ft | 259 kts | 103° |
| 2026-05-04 13:42 | 44.95412 | 0.35834 | 5915 ft | 250 kts | 103° |
| 2026-05-04 13:42 | 44.95098 | 0.38246 | 5920 ft | 249 kts | 103° |
| 2026-05-04 13:42 | 44.94784 | 0.40646 | 5920 ft | 248 kts | 103° |
| 2026-05-04 13:42 | 44.94470 | 0.43046 | 5919 ft | 248 kts | 104° |
| 2026-05-04 13:43 | 44.94157 | 0.45445 | 5916 ft | 248 kts | 103° |
| 2026-05-04 13:43 | 44.93846 | 0.47847 | 5910 ft | 249 kts | 103° |
| 2026-05-04 13:43 | 44.93529 | 0.50280 | 5546 ft | 254 kts | 103° |
| 2026-05-04 13:43 | 44.93208 | 0.52741 | 5164 ft | 257 kts | 103° |
| 2026-05-04 13:44 | 44.92886 | 0.55209 | 4901 ft | 254 kts | 103° |
| 2026-05-04 13:44 | 44.92566 | 0.57653 | 4602 ft | 252 kts | 103° |
| 2026-05-04 13:44 | 44.92251 | 0.60052 | 4278 ft | 252 kts | 103° |
| 2026-05-04 13:44 | 44.91931 | 0.62471 | 4004 ft | 250 kts | 103° |
| 2026-05-04 13:45 | 44.91614 | 0.64869 | 3768 ft | 247 kts | 103° |
| 2026-05-04 13:45 | 44.91299 | 0.67244 | 3490 ft | 246 kts | 104° |
| 2026-05-04 13:45 | 44.90982 | 0.69622 | 3121 ft | 245 kts | 103° |
| 2026-05-04 13:45 | 44.90680 | 0.71916 | 3000 ft | 230 kts | 104° |
| 2026-05-04 13:46 | 44.90395 | 0.74097 | 3008 ft | 222 kts | 103° |
| 2026-05-04 13:46 | 44.90114 | 0.76230 | 2927 ft | 222 kts | 103° |
| 2026-05-04 13:46 | 44.89837 | 0.78330 | 2839 ft | 213 kts | 103° |
| 2026-05-04 13:46 | 44.89436 | 0.80244 | 2753 ft | 196 kts | 125° |
| 2026-05-04 13:47 | 44.88537 | 0.81561 | 2710 ft | 183 kts | 152° |
| 2026-05-04 13:47 | 44.87367 | 0.82105 | 2617 ft | 176 kts | 179° |
| 2026-05-04 13:47 | 44.86159 | 0.82011 | 2549 ft | 173 kts | 187° |
| 2026-05-04 13:47 | 44.84959 | 0.81874 | 2509 ft | 173 kts | 187° |
| 2026-05-04 13:48 | 44.83749 | 0.81741 | 2495 ft | 174 kts | 187° |
| 2026-05-04 13:48 | 44.82605 | 0.81298 | 2502 ft | 171 kts | 208° |
| 2026-05-04 13:48 | 44.81688 | 0.80260 | 2496 ft | 166 kts | 231° |
| 2026-05-04 13:48 | 44.81157 | 0.78864 | 2499 ft | 161 kts | 252° |
| 2026-05-04 13:49 | 44.81045 | 0.77299 | 2499 ft | 162 kts | 271° |
| 2026-05-04 13:49 | 44.81135 | 0.75724 | 2509 ft | 162 kts | 271° |
| 2026-05-04 13:49 | 44.81225 | 0.74150 | 2508 ft | 161 kts | 272° |
| 2026-05-04 13:49 | 44.81313 | 0.72575 | 2512 ft | 162 kts | 270° |
| 2026-05-04 13:50 | 44.81401 | 0.71003 | 2502 ft | 160 kts | 270° |
| 2026-05-04 13:50 | 44.81489 | 0.69436 | 2415 ft | 160 kts | 271° |
| 2026-05-04 13:50 | 44.81576 | 0.67871 | 2252 ft | 160 kts | 271° |
| 2026-05-04 13:50 | 44.81662 | 0.66324 | 2050 ft | 154 kts | 271° |
| 2026-05-04 13:51 | 44.81741 | 0.64903 | 1871 ft | 141 kts | 272° |
| 2026-05-04 13:51 | 44.81815 | 0.63570 | 1693 ft | 134 kts | 271° |
| 2026-05-04 13:51 | 44.81886 | 0.62268 | 1494 ft | 132 kts | 270° |
| 2026-05-04 13:51 | 44.81957 | 0.60972 | 1324 ft | 133 kts | 269° |
| 2026-05-04 13:52 | 44.82099 | 0.58372 | 973 ft | 131 kts | 272° |
| 2026-05-04 13:52 | 44.82167 | 0.57096 | 779 ft | 132 kts | 271° |
| 2026-05-04 13:52 | 44.82240 | 0.55794 | 577 ft | 133 kts | 272° |
| 2026-05-04 13:53 | 44.82306 | 0.54518 | 407 ft | 130 kts | 272° |
| 2026-05-04 13:53 | 44.82375 | 0.53261 | 251 ft | 128 kts | 273° |
| 2026-05-04 13:53 | 44.82437 | 0.52067 | 177 ft | 107 kts | 275° |
| 2026-05-04 13:54 | 44.82499 | 0.51030 | 178 ft | 32 kts | 275° |
| 2026-05-04 13:54 | 44.82511 | 0.50817 | 178 ft | 15 kts | 274° |
| 2026-05-04 13:54 | 44.82395 | 0.50658 | 177 ft | 13 kts | 179° |
| 2026-05-04 13:55 | 44.82351 | 0.50757 | 177 ft | 14 kts | 96° |
| 2026-05-04 13:55 | 44.82350 | 0.50767 | 177 ft | 0 kts | 94° |
| 2026-05-04 13:56 | 44.82350 | 0.50770 | 177 ft | 0 kts | 94° |
| 2026-05-04 13:56 | 44.82347 | 0.50829 | 177 ft | 9 kts | 95° |
| 2026-05-04 13:57 | 44.82341 | 0.50934 | 177 ft | 12 kts | 95° |
| 2026-05-04 13:57 | 44.82333 | 0.51062 | 177 ft | 14 kts | 95° |
| 2026-05-04 13:58 | 44.82308 | 0.51530 | 177 ft | 11 kts | 94° |
| 2026-05-04 13:58 | 44.82265 | 0.51661 | 177 ft | 5 kts | 194° |
| 2026-05-04 13:58 | 44.82253 | 0.51613 | 177 ft | 6 kts | 280° |
| 2026-05-04 13:59 | 44.82267 | 0.51588 | 177 ft | 0 kts | 317° |